Last 24 Hours

UH Manoa Atmospheric Sciences

15 Minute Data | Pacific/Honolulu
as of 8/4/20 12:33 AM HST
Station Date Time Temp (°F) RH (%) Dew Pt (°F) Wind Spd (mph) Wind Dir (°) Wind Gust (mph) Latest Rain (In) Solar Rad (W/m2) Heat Index (°F) Barometric Pressure (inHg) Daily Rain (In) Daily Min Temp (°F) Daily Max Temp (°F) Daily Max Wind (mph)
UH Manoa Atmospheric Sciences 8/4/20 0030 78.4 69 67.5 6.4 NE | 55 12.9 0.00 0 78.4 30.08 0.00 78.2 78.8 14.0
UH Manoa Atmospheric Sciences 8/4/20 0015 78.5 68 67.0 6.7 NE | 48 14.0 0.00 0 78.5 30.08 0.00 78.4 78.8 14.0
UH Manoa Atmospheric Sciences 8/4/20 0000 78.6 68 67.1 8.0 NE | 53 17.3 0.00 0 78.6 30.08 0.03 73.0 84.7 26.8
UH Manoa Atmospheric Sciences 8/3/20 2345 78.4 70 67.6 6.7 NE | 56 12.4 0.00 0 78.4 30.08 0.03 73.0 84.7 26.8
UH Manoa Atmospheric Sciences 8/3/20 2330 78.6 69 67.4 5.4 ENE | 64 12.2 0.00 0 78.6 30.08 0.03 73.0 84.7 26.8
UH Manoa Atmospheric Sciences 8/3/20 2315 78.5 68 67.1 7.9 ENE | 57 17.4 0.00 0 78.5 30.09 0.03 73.0 84.7 26.8
UH Manoa Atmospheric Sciences 8/3/20 2300 78.3 68 67.0 6.7 ENE | 58 15.4 0.00 0 78.3 30.09 0.03 73.0 84.7 26.8
UH Manoa Atmospheric Sciences 8/3/20 2245 78.6 67 66.8 8.1 ENE | 57 17.9 0.00 0 78.6 30.09 0.03 73.0 84.7 26.8
UH Manoa Atmospheric Sciences 8/3/20 2230 78.8 67 66.8 8.5 ENE | 64 15.9 0.00 0 78.8 30.09 0.03 73.0 84.7 26.8
UH Manoa Atmospheric Sciences 8/3/20 2215 78.5 68 67.0 8.2 ENE | 60 14.2 0.00 0 78.5 30.08 0.03 73.0 84.7 26.8
UH Manoa Atmospheric Sciences 8/3/20 2200 78.5 68 67.0 8.9 ENE | 60 19.6 0.00 0 78.5 30.08 0.03 73.0 84.7 26.8
UH Manoa Atmospheric Sciences 8/3/20 2145 78.6 68 67.1 8.6 NE | 54 16.7 0.00 0 78.6 30.08 0.03 73.0 84.7 26.8
UH Manoa Atmospheric Sciences 8/3/20 2130 78.7 68 67.5 8.5 NE | 50 22.7 0.00 0 78.7 30.07 0.03 73.0 84.7 26.8
UH Manoa Atmospheric Sciences 8/3/20 2115 78.5 69 67.4 7.3 ENE | 60 13.4 0.00 0 78.5 30.07 0.03 73.0 84.7 26.8
UH Manoa Atmospheric Sciences 8/3/20 2100 78.6 69 67.5 5.7 ENE | 57 12.2 0.00 0 78.6 30.07 0.03 73.0 84.7 26.8
UH Manoa Atmospheric Sciences 8/3/20 2045 78.4 70 67.7 7.2 ENE | 58 15.1 0.00 0 78.4 30.06 0.03 73.0 84.7 26.8
UH Manoa Atmospheric Sciences 8/3/20 2030 78.5 69 67.7 9.5 NE | 54 20.2 0.00 0 78.5 30.06 0.03 73.0 84.7 26.8
UH Manoa Atmospheric Sciences 8/3/20 2015 78.5 69 67.4 7.4 ENE | 61 18.4 0.00 0 78.5 30.06 0.03 73.0 84.7 26.8
UH Manoa Atmospheric Sciences 8/3/20 2000 78.5 68 67.3 7.2 NE | 55 13.9 0.00 0 78.5 30.06 0.03 73.0 84.7 26.8
UH Manoa Atmospheric Sciences 8/3/20 1945 78.5 69 67.3 8.1 NE | 52 14.6 0.00 0 78.5 30.06 0.03 73.0 84.7 26.8
UH Manoa Atmospheric Sciences 8/3/20 1930 78.6 68 67.3 7.7 NE | 52 17.4 0.00 0 78.6 30.05 0.03 73.0 84.7 26.8
UH Manoa Atmospheric Sciences 8/3/20 1915 78.7 68 67.4 6.6 ENE | 57 14.2 0.00 1 78.7 30.05 0.03 73.0 84.7 26.8
UH Manoa Atmospheric Sciences 8/3/20 1900 78.8 68 67.4 8.2 NE | 56 15.7 0.00 28 78.8 30.04 0.03 73.0 84.7 26.8
UH Manoa Atmospheric Sciences 8/3/20 1845 78.6 69 67.6 8.9 NE | 53 17.8 0.00 63 78.6 30.04 0.03 73.0 84.7 26.8
UH Manoa Atmospheric Sciences 8/3/20 1830 79.2 67 67.3 7.5 NE | 50 17.2 0.00 63 79.2 30.04 0.03 73.0 84.7 26.8
UH Manoa Atmospheric Sciences 8/3/20 1815 79.4 66 67.0 10.7 NE | 47 19.9 0.00 71 79.4 30.03 0.03 73.0 84.7 26.8
UH Manoa Atmospheric Sciences 8/3/20 1800 79.6 65 66.9 13.9 NE | 46 25.3 0.00 105 79.6 30.03 0.03 73.0 84.7 26.8
UH Manoa Atmospheric Sciences 8/3/20 1745 80.2 64 66.9 11.8 NE | 49 25.4 0.00 296 82.0 30.02 0.03 73.0 84.7 26.8
UH Manoa Atmospheric Sciences 8/3/20 1730 80.2 63 66.4 11.3 NE | 47 26.8 0.00 180 82.1 30.02 0.03 73.0 84.7 26.8
UH Manoa Atmospheric Sciences 8/3/20 1715 80.3 61 65.8 12.4 NE | 43 21.8 0.00 240 82.4 30.02 0.03 73.0 84.7 25.9
UH Manoa Atmospheric Sciences 8/3/20 1700 80.8 62 66.5 13.3 NE | 40 24.4 0.00 411 83.0 30.02 0.03 73.0 84.7 25.9
UH Manoa Atmospheric Sciences 8/3/20 1645 81.3 60 66.0 12.2 NE | 43 24.5 0.00 588 83.4 30.02 0.03 73.0 84.7 25.9
UH Manoa Atmospheric Sciences 8/3/20 1630 80.8 60 65.7 13.1 NE | 42 20.8 0.00 596 82.8 30.02 0.03 73.0 84.7 25.9
UH Manoa Atmospheric Sciences 8/3/20 1615 80.8 62 66.6 12.6 NE | 39 20.9 0.00 452 83.1 30.02 0.03 73.0 84.7 25.9
UH Manoa Atmospheric Sciences 8/3/20 1600 80.6 67 68.6 11.5 NE | 49 24.4 0.00 696 83.0 30.02 0.03 73.0 84.7 25.9
UH Manoa Atmospheric Sciences 8/3/20 1545 80.2 69 69.2 12.0 NE | 38 22.1 0.00 484 81.6 30.03 0.03 73.0 84.7 25.9
UH Manoa Atmospheric Sciences 8/3/20 1530 81.6 64 68.1 11.6 NE | 37 21.9 0.00 780 84.4 30.03 0.03 73.0 84.7 25.9
UH Manoa Atmospheric Sciences 8/3/20 1515 82.5 60 67.4 11.5 NE | 45 25.9 0.00 768 85.2 30.03 0.03 73.0 84.7 25.9
UH Manoa Atmospheric Sciences 8/3/20 1500 82.4 60 67.3 11.6 NE | 38 21.8 0.00 917 85.1 30.03 0.03 73.0 84.7 22.9
UH Manoa Atmospheric Sciences 8/3/20 1445 82.3 61 67.6 11.0 NE | 42 20.6 0.00 962 85.1 30.04 0.03 73.0 84.7 22.9
UH Manoa Atmospheric Sciences 8/3/20 1430 82.7 59 66.9 10.5 NE | 39 20.9 0.00 1,021 85.2 30.04 0.03 73.0 84.7 22.9
UH Manoa Atmospheric Sciences 8/3/20 1415 82.5 58 66.3 12.2 NE | 42 21.2 0.00 992 84.8 30.04 0.03 73.0 84.7 22.9
UH Manoa Atmospheric Sciences 8/3/20 1400 82.6 58 66.3 12.4 NE | 36 22.1 0.00 1,001 84.9 30.04 0.03 73.0 84.7 22.9
UH Manoa Atmospheric Sciences 8/3/20 1345 82.9 58 66.8 12.7 NE | 45 22.9 0.00 1,010 85.4 30.04 0.03 73.0 84.7 22.9
UH Manoa Atmospheric Sciences 8/3/20 1330 82.4 59 66.7 13.4 NE | 38 22.4 0.00 1,023 84.8 30.04 0.03 73.0 84.7 22.4
UH Manoa Atmospheric Sciences 8/3/20 1315 82.7 57 66.1 13.0 NE | 36 22.1 0.00 1,036 84.9 30.05 0.03 73.0 84.7 22.1
UH Manoa Atmospheric Sciences 8/3/20 1300 82.9 57 65.9 10.7 NE | 38 21.6 0.00 1,018 85.0 30.05 0.03 73.0 84.7 21.6
UH Manoa Atmospheric Sciences 8/3/20 1245 83.0 55 65.3 11.4 NE | 43 19.4 0.00 1,032 84.9 30.06 0.03 73.0 84.7 21.1
UH Manoa Atmospheric Sciences 8/3/20 1230 83.3 53 64.7 9.7 NE | 47 21.1 0.00 1,031 84.9 30.06 0.03 73.0 84.7 21.1
UH Manoa Atmospheric Sciences 8/3/20 1215 84.0 52 64.4 7.5 NE | 48 16.1 0.00 1,025 85.5 30.06 0.03 73.0 84.7 20.0
UH Manoa Atmospheric Sciences 8/3/20 1200 83.2 55 65.5 7.8 NE | 52 15.4 0.00 1,023 85.2 30.07 0.03 73.0 83.9 20.0
UH Manoa Atmospheric Sciences 8/3/20 1145 83.0 55 65.4 9.5 NE | 47 16.1 0.00 1,044 85.0 30.07 0.03 73.0 83.6 20.0
UH Manoa Atmospheric Sciences 8/3/20 1130 82.7 56 65.3 8.8 NE | 43 17.1 0.00 984 84.6 30.08 0.03 73.0 83.6 20.0
UH Manoa Atmospheric Sciences 8/3/20 1115 82.1 59 66.2 9.2 NE | 42 16.8 0.00 996 84.3 30.08 0.03 73.0 82.9 20.0
UH Manoa Atmospheric Sciences 8/3/20 1100 81.3 61 66.6 8.8 NE | 48 19.7 0.00 927 83.7 30.08 0.03 73.0 82.8 20.0
UH Manoa Atmospheric Sciences 8/3/20 1045 80.8 62 66.9 8.7 NE | 46 16.5 0.00 670 83.2 30.08 0.03 73.0 82.4 20.0
UH Manoa Atmospheric Sciences 8/3/20 1030 81.2 64 67.8 8.1 NE | 49 16.6 0.00 877 84.0 30.08 0.03 73.0 82.4 20.0
UH Manoa Atmospheric Sciences 8/3/20 1015 81.4 62 67.1 8.6 NE | 54 20.0 0.00 879 83.9 30.08 0.03 73.0 82.4 20.0
UH Manoa Atmospheric Sciences 8/3/20 1000 81.6 60 66.6 7.2 NE | 48 14.8 0.00 841 84.0 30.08 0.03 73.0 82.4 18.4
UH Manoa Atmospheric Sciences 8/3/20 0945 81.1 60 66.1 7.2 NE | 53 13.6 0.00 793 83.3 30.08 0.03 73.0 81.8 18.4
UH Manoa Atmospheric Sciences 8/3/20 0930 80.8 61 66.1 5.8 ENE | 62 12.5 0.00 617 82.9 30.08 0.03 73.0 81.2 18.4
UH Manoa Atmospheric Sciences 8/3/20 0915 80.5 61 65.7 6.5 NE | 55 12.6 0.00 719 82.5 30.08 0.03 73.0 81.1 18.4
UH Manoa Atmospheric Sciences 8/3/20 0900 79.6 64 66.4 7.6 NE | 55 14.7 0.00 650 79.8 30.08 0.03 73.0 80.1 18.4
UH Manoa Atmospheric Sciences 8/3/20 0845 78.6 67 66.8 7.7 ENE | 64 18.4 0.00 336 78.6 30.07 0.03 73.0 79.6 18.4
UH Manoa Atmospheric Sciences 8/3/20 0830 79.0 67 67.3 6.1 ENE | 61 12.7 0.00 422 79.0 30.07 0.03 73.0 79.6 17.9
UH Manoa Atmospheric Sciences 8/3/20 0815 77.8 70 67.4 6.4 ENE | 67 11.5 0.00 291 77.8 30.07 0.03 73.0 78.4 17.9
UH Manoa Atmospheric Sciences 8/3/20 0800 77.1 71 67.2 8.6 ENE | 66 15.0 0.00 179 77.1 30.06 0.03 73.0 77.6 17.9
UH Manoa Atmospheric Sciences 8/3/20 0745 75.3 79 68.2 5.7 ENE | 59 11.1 0.00 157 75.3 30.06 0.03 73.0 77.4 17.9
UH Manoa Atmospheric Sciences 8/3/20 0730 73.6 83 68.2 5.5 ENE | 57 10.7 0.00 123 73.6 30.06 0.03 73.0 77.4 17.9
UH Manoa Atmospheric Sciences 8/3/20 0715 73.4 83 67.9 8.2 NE | 50 15.2 0.00 66 73.4 30.06 0.03 73.0 77.4 17.9
UH Manoa Atmospheric Sciences 8/3/20 0700 73.6 82 67.8 6.5 NE | 56 13.3 0.00 42 73.6 30.06 0.03 73.4 77.4 17.9
UH Manoa Atmospheric Sciences 8/3/20 0645 74.0 84 68.8 5.7 NE | 52 12.6 0.00 25 74.0 30.06 0.03 73.6 77.4 17.9
UH Manoa Atmospheric Sciences 8/3/20 0630 74.3 84 69.0 5.9 NE | 52 11.3 0.01 14 74.3 30.06 0.03 74.0 77.4 17.9
UH Manoa Atmospheric Sciences 8/3/20 0615 74.9 80 68.5 6.4 ENE | 63 14.8 0.01 2 74.9 30.05 0.02 74.3 77.4 17.9
UH Manoa Atmospheric Sciences 8/3/20 0600 75.1 79 68.0 5.6 ENE | 62 11.5 0.00 0 75.1 30.05 0.01 74.3 77.4 17.9
UH Manoa Atmospheric Sciences 8/3/20 0545 75.4 77 67.6 7.6 ENE | 61 14.1 0.00 0 75.4 30.04 0.01 74.3 77.4 17.9
UH Manoa Atmospheric Sciences 8/3/20 0530 75.0 79 68.0 5.8 ENE | 64 11.1 0.00 0 75.0 30.04 0.01 74.3 77.4 17.9
UH Manoa Atmospheric Sciences 8/3/20 0515 74.9 80 68.5 7.6 ENE | 64 17.9 0.01 0 74.9 30.04 0.01 74.3 77.4 17.9
UH Manoa Atmospheric Sciences 8/3/20 0500 75.2 79 68.2 4.9 ENE | 72 10.9 0.00 0 75.2 30.03 0.00 74.3 77.4 16.5
UH Manoa Atmospheric Sciences 8/3/20 0445 76.2 75 67.8 7.5 ENE | 69 13.2 0.00 0 76.2 30.04 0.00 74.3 77.4 16.5
UH Manoa Atmospheric Sciences 8/3/20 0430 76.5 74 67.7 6.2 ENE | 62 14.2 0.00 0 76.5 30.04 0.00 74.3 77.4 16.5
UH Manoa Atmospheric Sciences 8/3/20 0415 76.4 74 67.6 5.0 ENE | 63 9.5 0.00 0 76.4 30.04 0.00 74.3 77.4 16.5
UH Manoa Atmospheric Sciences 8/3/20 0400 77.0 71 66.9 5.1 ENE | 60 10.9 0.00 0 77.0 30.04 0.00 74.3 77.4 16.5
UH Manoa Atmospheric Sciences 8/3/20 0345 77.0 71 66.8 7.2 ENE | 66 14.8 0.00 0 77.0 30.04 0.00 74.3 77.4 16.5
UH Manoa Atmospheric Sciences 8/3/20 0330 77.0 71 66.8 6.5 ENE | 67 12.5 0.00 0 77.0 30.04 0.00 74.3 77.4 16.5
UH Manoa Atmospheric Sciences 8/3/20 0315 77.0 71 66.7 6.8 ENE | 65 12.0 0.00 0 77.0 30.04 0.00 74.3 77.4 16.5
UH Manoa Atmospheric Sciences 8/3/20 0300 77.1 70 66.6 7.6 ENE | 61 15.6 0.00 0 77.1 30.04 0.00 74.3 77.4 16.5
UH Manoa Atmospheric Sciences 8/3/20 0245 76.8 71 66.8 7.4 ENE | 64 13.3 0.00 0 76.8 30.04 0.00 74.3 77.3 16.5
UH Manoa Atmospheric Sciences 8/3/20 0230 76.9 71 66.7 6.4 ENE | 64 12.0 0.00 0 76.9 30.05 0.00 74.3 77.3 16.5
UH Manoa Atmospheric Sciences 8/3/20 0215 76.8 71 66.9 8.0 ENE | 63 14.2 0.00 0 76.8 30.05 0.00 74.3 77.1 16.5
UH Manoa Atmospheric Sciences 8/3/20 0200 76.7 73 67.2 7.2 ENE | 65 13.2 0.00 0 76.7 30.05 0.00 74.3 77.0 16.5
UH Manoa Atmospheric Sciences 8/3/20 0145 76.6 74 67.6 7.1 ENE | 61 12.0 0.00 0 76.6 30.05 0.00 74.3 76.9 16.5
UH Manoa Atmospheric Sciences 8/3/20 0130 76.2 76 68.0 7.3 ENE | 61 14.4 0.00 0 76.2 30.05 0.00 74.3 76.7 16.5
UH Manoa Atmospheric Sciences 8/3/20 0115 75.3 81 69.1 4.5 ENE | 61 10.3 0.00 0 75.3 30.06 0.00 74.3 76.5 16.5
UH Manoa Atmospheric Sciences 8/3/20 0100 75.8 79 69.0 7.2 ENE | 64 13.0 0.00 0 75.8 30.06 0.00 74.3 76.5 16.5
UH Manoa Atmospheric Sciences 8/3/20 0045 75.1 81 68.9 6.3 ENE | 60 14.8 0.00 0 75.1 30.06 0.00 74.3 75.9 16.5
UH Manoa Atmospheric Sciences 8/3/20 0030 74.7 82 69.0 7.1 NE | 52 13.4 0.00 0 74.7 30.07 0.00 74.3 75.9 16.5
Max     84.0 84 69.2 13.9 - 26.8 0.01 1,044 85.5 30.09 0.03 78.4 84.7 26.8
Avg     78.8 68 67.1 8.4 - 16.6 0.00 315 79.6 30.06 - - - -
Min     73.4 52 64.4 4.5 - 9.5 0.00 0 73.4 30.02 0.00 73.0 75.9 14.0